Flight Track Log - Related Links

Times and Time Zones

All times are in EDT time to prevent confusion due to time zone crossing. See the SWA395 flight status page for this flight to view local times or setup timezone preferences in your user account.

Time Position Orientation Groundspeed Altitude Reporting Facility
EDT Latitude Longitude Course Direction KTS MPH feet Rate Location/Type
Fri 08:36:39 AM 36.1950 -95.9100 245° Southwest 143 165 1,500  Level Kansas City Center
Fri 08:37:39 AM 36.1744 -95.9644 245° Southwest 210 242 4,600 2,897 Climbing Kansas City Center
Fri 08:38:06 AM 36.1478 -95.9622 176° South 219 252 5,700 2,932 Climbing Kansas City Center
Fri 08:39:07 AM 36.0669 -95.9500 173° South 280 322 8,900 3,171 Climbing Kansas City Center
Fri 08:40:09 AM 35.9756 -95.9372 174° South 315 362 12,200 3,443 Climbing Kansas City Center
Fri 08:41:09 AM 35.8744 -95.9231 174° South 350 403 15,900 3,387 Climbing Kansas City Center
Fri 08:42:13 AM 35.7736 -95.9089 173° South 363 418 19,200 2,880 Climbing Kansas City Center
Fri 08:43:14 AM 35.6700 -95.8964 174° South 367 422 21,900 1,474 Climbing Kansas City Center
Fri 08:44:07 AM 35.5492 -95.8803 174° South 394 453 22,000 53 Climbing Fort Worth Center
Fri 08:45:07 AM 35.4342 -95.8619 173° South 408 470 22,000  Level Fort Worth Center
Fri 08:46:07 AM 35.3153 -95.8464 174° South 420 483 22,000  Level Fort Worth Center
Fri 08:47:07 AM 35.1939 -95.8333 175° South 433 498 22,000  Level Fort Worth Center
Fri 08:48:07 AM 35.0708 -95.8128 172° South 438 504 22,000  Level Fort Worth Center
Fri 08:49:07 AM 34.9517 -95.7947 173° South 443 510 22,000  Level Fort Worth Center
Fri 08:50:07 AM 34.8306 -95.7869 177° South 443 510 22,000  Level Fort Worth Center
Fri 08:51:07 AM 34.7183 -95.8294 197° South 424 488 22,000  Level Fort Worth Center
Fri 08:52:07 AM 34.6083 -95.8669 196° South 424 488 22,000  Level Fort Worth Center
Fri 08:53:07 AM 34.4961 -95.9067 196° South 419 482 22,000  Level Fort Worth Center
Fri 08:54:07 AM 34.3858 -95.9439 196° South 414 476 22,000  Level Fort Worth Center
Fri 08:55:07 AM 34.2800 -95.9833 197° South 408 470 22,000  Level Fort Worth Center
Fri 08:56:07 AM 34.1739 -96.0203 196° South 408 470 22,000 -200 Level Fort Worth Center
Fri 08:57:07 AM 34.0825 -96.0519 196° South 397 457 21,600 -1,300 Descending Fort Worth Center
Fri 08:58:07 AM 33.9828 -96.0883 197° South 383 441 19,400 -2,400 Descending Fort Worth Center
Fri 08:59:07 AM 33.8869 -96.1200 195° South 368 423 16,800 -2,650 Descending Fort Worth Center
Fri 09:00:07 AM 33.7936 -96.1514 196° South 354 407 14,100 -2,400 Descending Fort Worth Center
Fri 09:01:07 AM 33.6958 -96.1850 196° South 347 399 12,000 -1,800 Descending Fort Worth Center
Fri 09:02:07 AM 33.6189 -96.2111 196° South 331 381 10,500 -1,000 Descending Fort Worth Center
Fri 09:03:07 AM 33.5294 -96.2422 196° South 312 359 10,000 -250 Descending Fort Worth Center
Fri 09:04:07 AM 33.4564 -96.2681 196° South 307 353 10,000  Level Fort Worth Center
Fri 09:05:07 AM 33.3650 -96.2992 196° South 307 353 10,000 -100 Level Fort Worth Center
Fri 09:06:07 AM 33.2922 -96.3250 197° South 302 348 9,800 -950 Descending Fort Worth Center
Fri 09:07:07 AM 33.2281 -96.3928 221° Southwest 289 333 8,100 -1,300 Descending Fort Worth Center
Fri 09:08:07 AM 33.1889 -96.4578 234° Southwest 289 333 7,200 -1,000 Descending Fort Worth Center
Fri 09:09:07 AM 33.1478 -96.5425 240° Southwest 273 314 6,100 -1,000 Descending Fort Worth Center
Fri 09:10:07 AM 33.1128 -96.6222 242° Southwest 273 314 5,200 -900 Descending Fort Worth Center
Fri 09:11:07 AM 33.0797 -96.6919 241° Southwest 273 314 4,300 -1,049 Descending Fort Worth Center
Fri 09:11:50 AM 33.0500 -96.7500 239° Southwest 266 306 3,400 -866 Descending Dallas / Fort Worth TRACON
Fri 09:12:44 AM 33.0000 -96.8000 220° Southwest 251 289 2,900 -316 Descending Dallas / Fort Worth TRACON
Fri 09:13:44 AM 32.9500 -96.8667 228° Southwest 219 252 2,800 -470 Descending Dallas / Fort Worth TRACON
Fri 09:14:39 AM 32.9167 -96.9000 220° Southwest 210 242 2,000 -835 Descending Dallas / Fort Worth TRACON
Fri 09:15:39 AM 32.8833 -96.9000 180° South 187 215 1,200 -800 Descending Dallas / Fort Worth TRACON
Fri 09:19:00 AM 32.8471 -96.8518 North  Level Estimated

Login

Don't have an account? Register now (free) for customized features, flight alerts, and more!